createdAt,value
2023-02-07T00:00:37.568Z,92.63
2023-02-07T00:01:37.690Z,92.52
2023-02-07T00:02:37.543Z,92.41
2023-02-07T00:03:37.525Z,92.63
2023-02-07T00:04:37.512Z,92.73
2023-02-07T00:05:37.895Z,92.73
2023-02-07T00:06:37.482Z,92.63
2023-02-07T00:07:37.480Z,92.84
2023-02-07T00:08:37.483Z,93.05
2023-02-07T00:09:37.493Z,92.94
2023-02-07T00:10:37.467Z,92.73
2023-02-07T00:11:37.436Z,92.31
2023-02-07T00:12:37.443Z,92.41
2023-02-07T00:13:37.396Z,92.31
2023-02-07T00:14:37.383Z,92.31
2023-02-07T00:15:37.690Z,92.52
2023-02-07T00:16:37.440Z,92.73
2023-02-07T00:17:37.386Z,93.05
2023-02-07T00:18:37.331Z,92.94
2023-02-07T00:19:37.327Z,92.31
2023-02-07T00:20:37.317Z,92.10
2023-02-07T00:21:37.301Z,92.31
2023-02-07T00:22:37.288Z,92.10
2023-02-07T00:23:37.269Z,92.41
2023-02-07T00:24:37.265Z,92.84
2023-02-07T00:25:37.595Z,92.84
2023-02-07T00:26:37.251Z,93.26
2023-02-07T00:27:37.291Z,93.37
2023-02-07T00:28:37.236Z,93.15
2023-02-07T00:29:37.202Z,93.05
2023-02-07T00:30:37.268Z,92.94
2023-02-07T00:31:37.307Z,93.26
2023-02-07T00:32:37.164Z,93.26
2023-02-07T00:33:37.174Z,92.84
2023-02-07T00:34:37.153Z,92.84
2023-02-07T00:35:37.543Z,92.94
2023-02-07T00:36:37.139Z,92.84
2023-02-07T00:37:37.092Z,92.84
2023-02-07T00:38:37.090Z,93.15
2023-02-07T00:39:37.068Z,93.05
2023-02-07T00:40:37.060Z,93.15
2023-02-07T00:41:37.050Z,93.26
2023-02-07T00:42:37.031Z,93.26
2023-02-07T00:43:37.021Z,92.84
2023-02-07T00:44:37.014Z,92.94
2023-02-07T00:45:37.354Z,93.19
2023-02-07T00:46:36.981Z,93.57
2023-02-07T00:47:36.973Z,93.47
2023-02-07T00:48:36.955Z,93.05
2023-02-07T00:49:36.977Z,92.73
2023-02-07T00:50:36.934Z,92.14
2023-02-07T00:51:36.924Z,92.03
2023-02-07T00:52:36.914Z,92.31
2023-02-07T00:53:36.902Z,92.03
2023-02-07T00:54:36.886Z,92.14
2023-02-07T00:55:37.220Z,92.14
2023-02-07T00:56:36.868Z,92.35
2023-02-07T00:57:36.849Z,92.46
2023-02-07T00:58:36.834Z,92.57
2023-02-07T00:59:36.813Z,92.67
2023-02-07T01:00:36.811Z,92.46
2023-02-07T01:01:36.891Z,92.35
2023-02-07T01:02:36.774Z,92.25
2023-02-07T01:03:36.772Z,92.67
2023-02-07T01:04:36.798Z,92.88
2023-02-07T01:05:37.226Z,92.77
2023-02-07T01:06:36.736Z,92.88
2023-02-07T01:07:36.713Z,92.88
2023-02-07T01:08:36.714Z,92.25
2023-02-07T01:09:36.694Z,91.93
2023-02-07T01:10:36.680Z,92.18
2023-02-07T01:11:36.676Z,92.60
2023-02-07T01:12:36.657Z,93.13
2023-02-07T01:13:36.639Z,93.24
2023-02-07T01:14:36.624Z,93.03
2023-02-07T01:15:37.072Z,93.13
2023-02-07T01:16:36.614Z,93.24
2023-02-07T01:17:36.614Z,92.88
2023-02-07T01:18:36.582Z,93.13
2023-02-07T01:19:36.566Z,93.24
2023-02-07T01:20:36.556Z,93.13
2023-02-07T01:21:36.568Z,93.13
2023-02-07T01:22:36.541Z,93.24
2023-02-07T01:23:36.520Z,93.03
2023-02-07T01:24:36.506Z,92.88
2023-02-07T01:25:36.840Z,92.88
2023-02-07T01:26:36.485Z,92.71
2023-02-07T01:27:36.463Z,92.50
2023-02-07T01:28:36.455Z,92.40
2023-02-07T01:29:36.446Z,92.60
2023-02-07T01:30:36.532Z,92.29
2023-02-07T01:31:36.628Z,92.50
2023-02-07T01:32:36.398Z,92.71
2023-02-07T01:33:36.396Z,92.40
2023-02-07T01:34:36.384Z,92.60
2023-02-07T01:35:36.799Z,92.92
2023-02-07T01:36:36.353Z,92.92
2023-02-07T01:37:36.368Z,93.24
2023-02-07T01:38:36.325Z,93.13
2023-02-07T01:39:36.312Z,93.03
2023-02-07T01:40:36.292Z,92.92
2023-02-07T01:41:36.297Z,92.92
2023-02-07T01:42:36.266Z,92.67
2023-02-07T01:43:36.283Z,92.35
2023-02-07T01:44:36.240Z,91.97
2023-02-07T01:45:36.520Z,91.66
2023-02-07T01:46:36.286Z,91.76
2023-02-07T01:47:36.217Z,91.97
2023-02-07T01:48:36.193Z,91.97
2023-02-07T01:49:36.189Z,92.08
2023-02-07T01:50:36.202Z,92.18
2023-02-07T01:51:36.169Z,91.76
2023-02-07T01:52:36.133Z,91.86
2023-02-07T01:53:36.156Z,92.08
2023-02-07T01:54:36.115Z,92.33
2023-02-07T01:55:36.290Z,92.08
2023-02-07T01:56:36.081Z,92.02
2023-02-07T01:57:36.070Z,91.44
2023-02-07T01:58:36.065Z,91.59
2023-02-07T01:59:36.044Z,91.91
2023-02-07T02:00:36.042Z,91.80
2023-02-07T02:01:36.063Z,91.91
2023-02-07T02:02:36.099Z,92.02
2023-02-07T02:03:35.993Z,92.02
2023-02-07T02:04:35.981Z,91.91
2023-02-07T02:05:36.249Z,91.85
2023-02-07T02:06:35.970Z,91.95
2023-02-07T02:07:35.958Z,92.05
2023-02-07T02:08:35.935Z,92.16
2023-02-07T02:09:36.004Z,92.27
2023-02-07T02:10:35.915Z,92.37
2023-02-07T02:11:35.896Z,92.12
2023-02-07T02:12:35.877Z,92.05
2023-02-07T02:13:35.863Z,92.16
2023-02-07T02:14:35.857Z,92.37
2023-02-07T02:15:36.074Z,92.58
2023-02-07T02:16:35.823Z,92.58
2023-02-07T02:17:35.824Z,92.58
2023-02-07T02:18:35.805Z,92.69
2023-02-07T02:19:35.785Z,92.79
2023-02-07T02:20:35.774Z,92.90
2023-02-07T02:21:35.771Z,93.01
2023-02-07T02:22:35.751Z,93.11
2023-02-07T02:23:35.742Z,92.90
2023-02-07T02:24:35.730Z,92.69
2023-02-07T02:25:36.055Z,92.79
2023-02-07T02:26:35.703Z,92.90
2023-02-07T02:27:35.686Z,93.01
2023-02-07T02:28:35.679Z,93.01
2023-02-07T02:29:35.667Z,93.11
2023-02-07T02:30:35.661Z,93.01
2023-02-07T02:31:35.725Z,93.01
2023-02-07T02:32:35.642Z,92.90
2023-02-07T02:33:35.621Z,92.90
2023-02-07T02:34:35.600Z,92.90
2023-02-07T02:35:35.659Z,92.79
2023-02-07T02:36:35.588Z,92.90
2023-02-07T02:37:35.569Z,93.22
2023-02-07T02:38:35.567Z,93.11
2023-02-07T02:39:35.530Z,93.22
2023-02-07T02:40:35.528Z,93.11
2023-02-07T02:41:35.525Z,92.90
2023-02-07T02:42:35.489Z,92.90
2023-02-07T02:43:35.485Z,93.01
2023-02-07T02:44:35.464Z,92.79
2023-02-07T02:45:35.737Z,92.79
2023-02-07T02:46:35.525Z,92.79
2023-02-07T02:47:35.425Z,92.79
2023-02-07T02:48:35.424Z,92.90
2023-02-07T02:49:35.415Z,93.22
2023-02-07T02:50:35.397Z,93.01
2023-02-07T02:51:35.379Z,93.05
2023-02-07T02:52:50.008Z,92.90
2023-02-07T02:53:36.396Z,93.01
2023-02-07T02:54:35.338Z,93.22
2023-02-07T02:55:35.548Z,93.32
2023-02-07T02:56:35.314Z,93.15
2023-02-07T02:57:35.336Z,93.15
2023-02-07T02:58:35.291Z,93.15
2023-02-07T02:59:35.283Z,93.15
2023-02-07T03:00:35.265Z,93.37
2023-02-07T03:01:35.288Z,93.47
2023-02-07T03:02:35.236Z,93.54
2023-02-07T03:03:35.237Z,93.47
2023-02-07T03:04:35.210Z,93.74
2023-02-07T03:05:35.392Z,93.85
2023-02-07T03:06:35.195Z,93.74
2023-02-07T03:07:35.171Z,93.64
2023-02-07T03:08:35.171Z,93.54
2023-02-07T03:09:35.148Z,93.54
2023-02-07T03:10:35.138Z,93.68
2023-02-07T03:11:35.122Z,93.64
2023-02-07T03:12:35.117Z,93.89
2023-02-07T03:13:35.128Z,94.06
2023-02-07T03:14:35.087Z,94.17
2023-02-07T03:15:35.192Z,94.06
2023-02-07T03:16:35.066Z,93.85
2023-02-07T03:17:35.057Z,93.64
2023-02-07T03:18:35.031Z,93.57
2023-02-07T03:19:35.030Z,93.68
2023-02-07T03:20:35.005Z,93.68
2023-02-07T03:21:35.001Z,93.57
2023-02-07T03:22:34.975Z,93.37
2023-02-07T03:23:34.964Z,93.26
2023-02-07T03:24:34.957Z,93.26
2023-02-07T03:25:34.949Z,93.41
2023-02-07T03:26:34.932Z,93.51
2023-02-07T03:27:34.913Z,93.62
2023-02-07T03:28:34.906Z,93.62
2023-02-07T03:29:34.926Z,93.62
2023-02-07T03:30:34.886Z,93.83
2023-02-07T03:31:34.940Z,93.93
2023-02-07T03:32:34.865Z,93.68
2023-02-07T03:33:34.842Z,93.73
2023-02-07T03:34:34.829Z,93.51
2023-02-07T03:35:34.804Z,93.41
2023-02-07T03:36:34.799Z,93.09
2023-02-07T03:37:34.788Z,93.19
2023-02-07T03:38:34.777Z,92.83
2023-02-07T03:39:34.767Z,92.73
2023-02-07T03:40:34.742Z,92.73
2023-02-07T03:41:34.732Z,92.73
2023-02-07T03:42:34.722Z,92.73
2023-02-07T03:43:34.720Z,92.77
2023-02-07T03:44:34.698Z,92.77
2023-02-07T03:45:34.715Z,92.67
2023-02-07T03:46:34.708Z,92.77
2023-02-07T03:47:34.652Z,92.77
2023-02-07T03:48:34.642Z,92.77
2023-02-07T03:49:34.627Z,92.88
2023-02-07T03:50:34.612Z,93.24
2023-02-07T03:51:34.600Z,93.19
2023-02-07T03:52:34.589Z,93.30
2023-02-07T03:53:34.579Z,93.41
2023-02-07T03:54:34.572Z,93.41
2023-02-07T03:55:34.572Z,93.41
2023-02-07T03:56:34.537Z,93.41
2023-02-07T03:57:34.528Z,93.51
2023-02-07T03:58:34.522Z,93.62
2023-02-07T03:59:34.506Z,93.51
2023-02-07T04:00:34.490Z,93.30
2023-02-07T04:01:34.503Z,93.30
2023-02-07T04:02:34.474Z,93.30
2023-02-07T04:03:34.453Z,93.41
2023-02-07T04:04:34.438Z,93.41
2023-02-07T04:05:34.426Z,93.51
2023-02-07T04:06:34.414Z,93.51
2023-02-07T04:07:34.403Z,93.51
2023-02-07T04:08:34.391Z,93.62
2023-02-07T04:09:34.379Z,93.62
2023-02-07T04:10:34.364Z,93.51
2023-02-07T04:11:34.344Z,93.62
2023-02-07T04:12:34.340Z,93.93
2023-02-07T04:13:34.330Z,94.10
2023-02-07T04:14:34.308Z,93.57
2023-02-07T04:15:34.302Z,93.47
2023-02-07T04:16:34.312Z,93.37
2023-02-07T04:17:34.307Z,93.37
2023-02-07T04:18:34.262Z,93.83
2023-02-07T04:19:34.249Z,94.00
2023-02-07T04:20:34.237Z,93.89
2023-02-07T04:21:34.222Z,93.57
2023-02-07T04:22:34.211Z,93.37
2023-02-07T04:23:34.193Z,93.68
2023-02-07T04:24:34.181Z,93.57
2023-02-07T04:25:34.172Z,93.79
2023-02-07T04:26:34.159Z,94.10
2023-02-07T04:27:34.150Z,93.89
2023-02-07T04:28:34.137Z,93.37
2023-02-07T04:29:34.115Z,93.57
2023-02-07T04:30:34.128Z,93.43
2023-02-07T04:31:34.171Z,93.15
2023-02-07T04:32:34.081Z,93.26
2023-02-07T04:33:34.100Z,93.57
2023-02-07T04:34:34.056Z,93.68
2023-02-07T04:35:34.034Z,93.37
2023-02-07T04:36:34.032Z,93.57
2023-02-07T04:37:34.008Z,93.57
2023-02-07T04:38:33.996Z,93.68
2023-02-07T04:39:33.991Z,93.68
2023-02-07T04:40:33.980Z,93.37
2023-02-07T04:41:33.967Z,93.47
2023-02-07T04:42:33.953Z,93.73
2023-02-07T04:43:33.953Z,93.89
2023-02-07T04:44:33.926Z,93.79
2023-02-07T04:45:33.946Z,93.47
2023-02-07T04:46:33.894Z,93.37
2023-02-07T04:47:33.880Z,93.26
2023-02-07T04:48:33.882Z,93.15
2023-02-07T04:49:34.722Z,93.15
2023-02-07T04:50:33.846Z,93.30
2023-02-07T04:51:33.830Z,93.09
2023-02-07T04:52:33.813Z,93.30
2023-02-07T04:53:33.812Z,93.41
2023-02-07T04:54:33.803Z,93.62
2023-02-07T04:55:33.784Z,93.41
2023-02-07T04:56:36.086Z,93.41
2023-02-07T04:57:33.756Z,93.30
2023-02-07T04:58:33.738Z,93.19
2023-02-07T04:59:33.737Z,93.51
2023-02-07T05:00:33.714Z,93.62
2023-02-07T05:01:33.697Z,93.62
2023-02-07T05:02:33.697Z,93.51
2023-02-07T05:03:33.693Z,93.41
2023-02-07T05:04:33.707Z,93.30
2023-02-07T05:05:33.682Z,93.41
2023-02-07T05:06:33.641Z,93.45
2023-02-07T05:07:33.627Z,93.55
2023-02-07T05:08:33.623Z,93.45
2023-02-07T05:09:33.607Z,93.45
2023-02-07T05:10:33.589Z,93.66
2023-02-07T05:11:33.586Z,93.77
2023-02-07T05:12:33.576Z,93.87
2023-02-07T05:13:33.557Z,94.09
2023-02-07T05:14:33.547Z,94.09
2023-02-07T05:15:33.539Z,94.13
2023-02-07T05:16:33.539Z,94.34
2023-02-07T05:17:33.507Z,94.34
2023-02-07T05:18:33.489Z,94.34
2023-02-07T05:19:33.482Z,94.23
2023-02-07T05:20:33.472Z,94.19
2023-02-07T05:21:33.492Z,94.23
2023-02-07T05:22:33.436Z,94.34
2023-02-07T05:23:33.425Z,94.23
2023-02-07T05:24:33.422Z,94.23
2023-02-07T05:25:33.399Z,94.23
2023-02-07T05:26:33.386Z,94.13
2023-02-07T05:27:33.384Z,94.23
2023-02-07T05:28:33.369Z,94.23
2023-02-07T05:29:33.351Z,94.23
2023-02-07T05:30:33.413Z,94.34
2023-02-07T05:31:33.463Z,94.34
2023-02-07T05:32:33.308Z,94.45
2023-02-07T05:33:33.294Z,94.55
2023-02-07T05:34:33.296Z,94.45
2023-02-07T05:35:33.270Z,94.34
2023-02-07T05:36:33.265Z,94.34
2023-02-07T05:37:33.274Z,94.34
2023-02-07T05:38:33.231Z,94.45
2023-02-07T05:39:33.226Z,94.45
2023-02-07T05:40:33.222Z,94.34
2023-02-07T05:41:33.190Z,94.38
2023-02-07T05:42:33.185Z,94.48
2023-02-07T05:43:33.171Z,94.45
2023-02-07T05:44:33.159Z,94.34
2023-02-07T05:45:33.145Z,94.23
2023-02-07T05:46:33.133Z,94.13
2023-02-07T05:47:33.125Z,93.91
2023-02-07T05:48:33.122Z,93.91
2023-02-07T05:49:33.093Z,93.96
2023-02-07T05:50:33.073Z,93.91
2023-02-07T05:51:33.066Z,94.17
2023-02-07T05:52:35.634Z,94.27
2023-02-07T05:53:33.067Z,94.17
2023-02-07T05:54:33.027Z,94.06
2023-02-07T05:55:33.012Z,94.27
2023-02-07T05:56:32.996Z,94.48
2023-02-07T05:57:33.004Z,94.48
2023-02-07T05:58:32.977Z,94.59
2023-02-07T05:59:32.959Z,94.70
2023-02-07T06:00:32.950Z,94.48
2023-02-07T06:01:32.947Z,94.38
2023-02-07T06:02:32.998Z,94.45
2023-02-07T06:03:32.987Z,94.38
2023-02-07T06:04:32.893Z,94.38
2023-02-07T06:05:32.888Z,94.27
2023-02-07T06:06:32.866Z,94.27
2023-02-07T06:07:32.864Z,94.27
2023-02-07T06:08:32.848Z,94.17
2023-02-07T06:09:32.854Z,94.13
2023-02-07T06:10:32.816Z,94.23
2023-02-07T06:11:32.812Z,93.85
2023-02-07T06:12:32.793Z,93.85
2023-02-07T06:13:32.791Z,93.64
2023-02-07T06:14:32.762Z,93.74
2023-02-07T06:15:32.794Z,93.74
2023-02-07T06:16:32.748Z,93.85
2023-02-07T06:17:32.721Z,93.96
2023-02-07T06:18:32.717Z,93.85
2023-02-07T06:19:32.705Z,93.96
2023-02-07T06:20:32.684Z,93.96
2023-02-07T06:21:45.740Z,93.96
2023-02-07T06:22:33.696Z,94.06
2023-02-07T06:23:32.662Z,93.96
2023-02-07T06:24:32.631Z,94.06
2023-02-07T06:25:32.643Z,94.17
2023-02-07T06:26:32.609Z,94.06
2023-02-07T06:27:32.604Z,93.85
2023-02-07T06:28:32.589Z,93.85
2023-02-07T06:29:32.580Z,93.74
2023-02-07T06:30:32.623Z,93.64
2023-02-07T06:31:32.624Z,93.64
2023-02-07T06:32:34.279Z,93.53
2023-02-07T06:33:32.525Z,93.85
2023-02-07T06:34:32.505Z,94.06
2023-02-07T06:35:32.498Z,94.27
2023-02-07T06:36:32.481Z,94.27
2023-02-07T06:37:32.466Z,94.17
2023-02-07T06:38:32.454Z,94.00
2023-02-07T06:39:32.444Z,94.17
2023-02-07T06:40:32.435Z,94.06
2023-02-07T06:41:32.439Z,94.10
2023-02-07T06:42:32.403Z,94.17
2023-02-07T06:43:32.420Z,94.17
2023-02-07T06:44:32.380Z,94.06
2023-02-07T06:45:32.437Z,94.06
2023-02-07T06:46:32.458Z,94.00
2023-02-07T06:47:32.376Z,93.96
2023-02-07T06:48:32.331Z,93.85
2023-02-07T06:49:32.326Z,94.00
2023-02-07T06:50:32.299Z,93.96
2023-02-07T06:51:32.285Z,93.85
2023-02-07T06:52:32.290Z,93.85
2023-02-07T06:53:32.269Z,93.85
2023-02-07T06:54:32.270Z,94.00
2023-02-07T06:55:32.236Z,94.06
2023-02-07T06:56:32.229Z,94.17
2023-02-07T06:57:32.244Z,93.85
2023-02-07T06:58:32.211Z,93.68
2023-02-07T06:59:32.188Z,93.74
2023-02-07T07:00:32.269Z,93.85
2023-02-07T07:01:32.206Z,94.10
2023-02-07T07:02:32.229Z,94.06
2023-02-07T07:03:32.140Z,93.85
2023-02-07T07:04:32.123Z,93.74
2023-02-07T07:05:32.110Z,93.74
2023-02-07T07:06:32.112Z,93.53
2023-02-07T07:07:32.084Z,93.43
2023-02-07T07:08:32.082Z,92.79
2023-02-07T07:09:32.062Z,92.69
2023-02-07T07:10:32.051Z,92.90
2023-02-07T07:11:32.037Z,93.11
2023-02-07T07:12:32.056Z,93.21
2023-02-07T07:13:32.038Z,93.21
2023-02-07T07:14:32.005Z,93.07
2023-02-07T07:15:31.994Z,92.65
2023-02-07T07:16:31.967Z,92.54
2023-02-07T07:17:31.957Z,92.33
2023-02-07T07:18:31.947Z,92.11
2023-02-07T07:19:31.952Z,92.01
2023-02-07T07:20:31.931Z,92.11
2023-02-07T07:21:31.924Z,92.11
2023-02-07T07:22:31.893Z,92.18
2023-02-07T07:23:31.899Z,91.65
2023-02-07T07:24:31.873Z,91.13
2023-02-07T07:25:31.849Z,91.02
2023-02-07T07:26:47.915Z,90.81
2023-02-07T07:27:32.866Z,90.59
2023-02-07T07:28:31.860Z,90.49
2023-02-07T07:29:31.845Z,90.34
2023-02-07T07:30:31.836Z,89.92
2023-02-07T07:31:31.829Z,89.71
2023-02-07T07:32:34.256Z,89.88
2023-02-07T07:33:31.755Z,89.88
2023-02-07T07:34:31.740Z,89.56
2023-02-07T07:35:31.727Z,88.93
2023-02-07T07:36:31.714Z,88.61
2023-02-07T07:37:31.708Z,88.89
2023-02-07T07:38:31.686Z,88.46
2023-02-07T07:39:31.678Z,88.15
2023-02-07T07:40:31.655Z,87.94
2023-02-07T07:41:31.643Z,87.94
2023-02-07T07:42:31.645Z,87.84
2023-02-07T07:43:31.628Z,88.19
2023-02-07T07:44:31.605Z,88.04
2023-02-07T07:45:31.616Z,88.26
2023-02-07T07:46:31.640Z,88.26
2023-02-07T07:47:31.572Z,88.04
2023-02-07T07:48:31.706Z,87.79
2023-02-07T07:49:31.540Z,87.37
2023-02-07T07:50:31.527Z,87.27
2023-02-07T07:51:31.511Z,86.70
2023-02-07T07:52:31.499Z,86.49
2023-02-07T07:53:31.493Z,86.28
2023-02-07T07:54:31.480Z,86.07
2023-02-07T07:55:31.469Z,85.96
2023-02-07T07:56:31.453Z,86.17
2023-02-07T07:57:31.438Z,86.28
2023-02-07T07:58:31.430Z,86.07
2023-02-07T07:59:31.416Z,86.05
2023-02-07T08:00:31.489Z,84.78
2023-02-07T08:01:31.411Z,82.92
2023-02-07T08:02:31.379Z,80.78
2023-02-07T08:03:31.405Z,78.39
2023-02-07T08:04:31.351Z,76.54
2023-02-07T08:05:31.339Z,73.51
2023-02-07T08:06:31.324Z,71.36
2023-02-07T08:07:31.322Z,68.78
2023-02-07T08:08:31.297Z,67.63
2023-02-07T08:09:31.278Z,67.77
2023-02-07T08:10:31.281Z,68.43
2023-02-07T08:11:31.252Z,68.84
2023-02-07T08:12:31.250Z,70.15
2023-02-07T08:13:33.006Z,71.14
2023-02-07T08:14:31.221Z,70.41
2023-02-07T08:15:31.207Z,69.79
2023-02-07T08:16:31.260Z,69.82
2023-02-07T08:17:31.211Z,68.98
2023-02-07T08:18:31.174Z,69.53
2023-02-07T08:19:31.171Z,72.14
2023-02-07T08:20:31.140Z,73.85
2023-02-07T08:21:31.139Z,74.93
2023-02-07T08:22:31.115Z,75.88
2023-02-07T08:23:31.108Z,76.29
2023-02-07T08:24:31.102Z,76.33
2023-02-07T08:25:31.089Z,76.79
2023-02-07T08:26:31.071Z,78.08
2023-02-07T08:27:31.048Z,79.27
2023-02-07T08:28:31.059Z,79.41
2023-02-07T08:29:31.033Z,80.54
2023-02-07T08:30:31.012Z,80.75
2023-02-07T08:31:31.318Z,80.64
2023-02-07T08:32:30.984Z,80.36
2023-02-07T08:33:31.001Z,80.68
2023-02-07T08:34:30.962Z,80.79
2023-02-07T08:35:30.949Z,80.68
2023-02-07T08:36:30.934Z,80.68
2023-02-07T08:37:30.919Z,81.52
2023-02-07T08:38:30.925Z,81.35
2023-02-07T08:39:30.907Z,81.98
2023-02-07T08:40:30.894Z,82.40
2023-02-07T08:41:30.886Z,82.19
2023-02-07T08:42:30.858Z,82.71
2023-02-07T08:43:30.853Z,82.61
2023-02-07T08:44:30.844Z,82.40
2023-02-07T08:45:30.942Z,83.03
2023-02-07T08:46:30.885Z,83.56
2023-02-07T08:47:30.794Z,83.52
2023-02-07T08:48:30.791Z,83.17
2023-02-07T08:49:30.814Z,82.43
2023-02-07T08:50:30.773Z,82.18
2023-02-07T08:51:30.743Z,81.45
2023-02-07T08:52:30.749Z,80.40
2023-02-07T08:53:30.736Z,79.73
2023-02-07T08:54:30.719Z,79.24
2023-02-07T08:55:30.705Z,79.45
2023-02-07T08:56:30.691Z,79.62
2023-02-07T08:57:30.671Z,79.52
2023-02-07T08:58:30.659Z,79.31
2023-02-07T08:59:30.659Z,78.78
2023-02-07T09:00:30.631Z,78.53
2023-02-07T09:01:30.679Z,78.22
2023-02-07T09:02:30.685Z,76.16
2023-02-07T09:03:30.594Z,75.21
2023-02-07T09:04:30.585Z,74.52
2023-02-07T09:05:30.607Z,73.90
2023-02-07T09:06:30.564Z,72.19
2023-02-07T09:07:30.564Z,71.01
2023-02-07T09:08:30.544Z,70.17
2023-02-07T09:09:30.519Z,69.62
2023-02-07T09:10:30.518Z,68.02
2023-02-07T09:11:30.618Z,66.60
2023-02-07T09:12:30.480Z,65.71
2023-02-07T09:13:30.468Z,64.62
2023-02-07T09:14:30.464Z,65.67
2023-02-07T09:15:30.448Z,64.39
2023-02-07T09:16:30.512Z,65.23
2023-02-07T09:17:30.436Z,67.56
2023-02-07T09:18:30.406Z,68.02
2023-02-07T09:19:30.397Z,66.57
2023-02-07T09:20:30.378Z,64.40
2023-02-07T09:21:30.398Z,62.50
2023-02-07T09:22:30.421Z,61.98
2023-02-07T09:23:30.356Z,62.13
2023-02-07T09:24:30.400Z,60.34
2023-02-07T09:25:30.320Z,59.04
2023-02-07T09:26:30.299Z,59.06
2023-02-07T09:27:30.301Z,60.00
2023-02-07T09:28:30.292Z,62.11
2023-02-07T09:29:30.264Z,62.87
2023-02-07T09:30:30.319Z,62.53
2023-02-07T09:31:30.376Z,62.55
2023-02-07T09:32:30.229Z,61.32
2023-02-07T09:33:30.215Z,59.47
2023-02-07T09:34:30.202Z,57.84
2023-02-07T09:35:30.197Z,56.54
2023-02-07T09:36:30.187Z,54.84
2023-02-07T09:37:34.857Z,54.58
2023-02-07T09:38:31.178Z,54.27
2023-02-07T09:39:30.149Z,53.80
2023-02-07T09:40:30.126Z,55.43
2023-02-07T09:41:30.122Z,57.17
2023-02-07T09:42:30.097Z,58.52
2023-02-07T09:43:36.354Z,60.71
2023-02-07T09:44:31.297Z,63.32
2023-02-07T09:45:30.291Z,66.00
2023-02-07T09:46:30.058Z,67.80
2023-02-07T09:47:30.037Z,68.43
2023-02-07T09:48:30.039Z,69.92
2023-02-07T09:49:30.012Z,70.34
2023-02-07T09:50:29.998Z,71.39
2023-02-07T09:51:29.993Z,71.11
2023-02-07T09:52:30.000Z,71.73
2023-02-07T09:53:29.992Z,71.21
2023-02-07T09:54:29.946Z,72.47
2023-02-07T09:55:29.958Z,72.30
2023-02-07T09:56:29.926Z,70.98
2023-02-07T09:57:29.922Z,70.04
2023-02-07T09:58:29.917Z,70.48
2023-02-07T09:59:29.882Z,70.52
2023-02-07T10:00:29.895Z,71.77
2023-02-07T10:01:29.924Z,70.83
2023-02-07T10:02:29.911Z,71.36
2023-02-07T10:03:29.837Z,71.67
2023-02-07T10:04:29.812Z,71.95
2023-02-07T10:05:29.802Z,70.90
2023-02-07T10:06:29.794Z,69.82
2023-02-07T10:07:29.796Z,68.89
2023-02-07T10:08:39.790Z,68.78
2023-02-07T10:09:30.802Z,68.23
2023-02-07T10:10:29.732Z,68.51
2023-02-07T10:11:29.759Z,66.83
2023-02-07T10:12:29.725Z,65.69
2023-02-07T10:13:29.706Z,63.41
2023-02-07T10:14:29.684Z,63.64
2023-02-07T10:15:29.721Z,64.95
2023-02-07T10:16:29.672Z,64.36
2023-02-07T10:17:31.764Z,65.40
2023-02-07T10:18:29.641Z,65.92
2023-02-07T10:19:29.622Z,65.75
2023-02-07T10:20:29.619Z,65.10
2023-02-07T10:21:29.614Z,64.37
2023-02-07T10:22:29.580Z,64.58
2023-02-07T10:23:29.587Z,65.65
2023-02-07T10:24:29.552Z,65.65
2023-02-07T10:25:30.964Z,65.10
2023-02-07T10:26:29.524Z,63.93
2023-02-07T10:27:29.518Z,64.21
2023-02-07T10:28:29.516Z,64.48
2023-02-07T10:29:29.506Z,65.31
2023-02-07T10:30:29.541Z,65.75
2023-02-07T10:31:29.598Z,66.06
2023-02-07T10:32:29.485Z,66.27
2023-02-07T10:33:29.446Z,65.34
2023-02-07T10:34:29.421Z,65.20
2023-02-07T10:35:29.422Z,65.55
2023-02-07T10:36:29.405Z,66.62
2023-02-07T10:37:29.399Z,67.17
2023-02-07T10:38:29.380Z,68.55
2023-02-07T10:39:29.362Z,68.87
2023-02-07T10:40:29.354Z,69.38
2023-02-07T10:41:29.365Z,68.87
2023-02-07T10:42:29.328Z,69.25
2023-02-07T10:43:29.316Z,67.42
2023-02-07T10:44:29.321Z,65.90
2023-02-07T10:45:29.283Z,64.70
2023-02-07T10:46:29.310Z,64.39
2023-02-07T10:47:29.297Z,64.59
2023-02-07T10:48:29.266Z,63.12
2023-02-07T10:49:29.249Z,65.26
2023-02-07T10:50:30.352Z,65.61
2023-02-07T10:51:29.239Z,68.35
2023-02-07T10:52:29.196Z,68.66
2023-02-07T10:53:29.195Z,67.88
2023-02-07T10:54:29.175Z,68.93
2023-02-07T10:55:29.153Z,69.21
2023-02-07T10:56:29.153Z,68.97
2023-02-07T10:57:29.178Z,68.52
2023-02-07T10:58:29.114Z,68.21
2023-02-07T10:59:29.113Z,69.04
2023-02-07T11:00:29.120Z,69.46
2023-02-07T11:01:29.122Z,69.04
2023-02-07T11:02:29.281Z,68.73
2023-02-07T11:03:29.065Z,68.87
2023-02-07T11:04:29.047Z,69.46
2023-02-07T11:05:29.037Z,67.69
2023-02-07T11:06:29.024Z,67.17
2023-02-07T11:07:32.484Z,69.25
2023-02-07T11:08:30.027Z,68.07
2023-02-07T11:09:28.982Z,67.10
2023-02-07T11:10:28.972Z,68.03
2023-02-07T11:11:28.948Z,68.35
2023-02-07T11:12:28.950Z,68.07
2023-02-07T11:13:29.343Z,69.13
2023-02-07T11:14:28.914Z,69.59
2023-02-07T11:15:28.902Z,70.76
2023-02-07T11:16:28.909Z,71.84
2023-02-07T11:17:28.933Z,72.54
2023-02-07T11:18:28.867Z,72.54
2023-02-07T11:19:28.855Z,71.50
2023-02-07T11:20:28.843Z,72.33
2023-02-07T11:21:28.837Z,72.44
2023-02-07T11:22:28.827Z,73.55
2023-02-07T11:23:28.820Z,72.51
2023-02-07T11:24:28.790Z,72.37
2023-02-07T11:25:28.783Z,72.06
2023-02-07T11:26:28.768Z,71.85
2023-02-07T11:27:28.744Z,72.37
2023-02-07T11:28:28.729Z,72.06
2023-02-07T11:29:28.753Z,71.95
2023-02-07T11:30:28.777Z,71.88
2023-02-07T11:31:28.796Z,71.75
2023-02-07T11:32:28.722Z,72.30
2023-02-07T11:33:28.674Z,71.57
2023-02-07T11:34:28.672Z,72.02
2023-02-07T11:35:28.655Z,72.47
2023-02-07T11:36:28.639Z,73.30
2023-02-07T11:37:28.628Z,75.60
2023-02-07T11:38:28.618Z,75.15
2023-02-07T11:39:28.610Z,72.75
2023-02-07T11:40:28.590Z,73.58
2023-02-07T11:41:28.570Z,74.42
2023-02-07T11:42:28.553Z,74.42
2023-02-07T11:43:28.541Z,74.01
2023-02-07T11:44:29.865Z,74.11
2023-02-07T11:45:28.590Z,75.53
2023-02-07T11:46:28.707Z,75.60
2023-02-07T11:47:28.493Z,74.66
2023-02-07T11:48:28.497Z,74.21
2023-02-07T11:49:28.467Z,73.76
2023-02-07T11:50:29.803Z,73.03
2023-02-07T11:51:28.436Z,72.20
2023-02-07T11:52:28.430Z,71.37
2023-02-07T11:53:28.416Z,70.01
2023-02-07T11:54:28.402Z,70.53
2023-02-07T11:55:28.399Z,71.58
2023-02-07T11:56:28.382Z,72.83
2023-02-07T11:57:28.359Z,72.09
2023-02-07T11:58:28.348Z,71.37
2023-02-07T11:59:28.345Z,71.16
2023-02-07T12:00:28.331Z,70.84
2023-02-07T12:01:28.336Z,71.68
2023-02-07T12:02:28.299Z,70.01
2023-02-07T12:03:28.308Z,71.16
2023-02-07T12:04:28.276Z,71.96
2023-02-07T12:05:28.269Z,70.50
2023-02-07T12:06:28.249Z,69.25
2023-02-07T12:07:28.242Z,69.67
2023-02-07T12:08:28.224Z,70.92
2023-02-07T12:09:28.214Z,68.94
2023-02-07T12:10:28.192Z,68.76
2023-02-07T12:11:28.193Z,71.86
2023-02-07T12:12:28.165Z,72.69
2023-02-07T12:13:28.151Z,71.09
2023-02-07T12:14:28.151Z,71.82
2023-02-07T12:15:28.127Z,70.99
2023-02-07T12:16:28.155Z,70.99
2023-02-07T12:17:28.123Z,69.95
2023-02-07T12:18:28.095Z,71.54
2023-02-07T12:19:28.085Z,71.30
2023-02-07T12:20:28.080Z,69.98
2023-02-07T12:21:28.065Z,68.73
2023-02-07T12:22:28.045Z,69.46
2023-02-07T12:23:41.975Z,69.98
2023-02-07T12:24:29.073Z,71.02
2023-02-07T12:25:29.975Z,71.54
2023-02-07T12:26:27.991Z,70.19
2023-02-07T12:27:27.981Z,70.40
2023-02-07T12:28:27.972Z,69.35
2023-02-07T12:29:27.951Z,68.03
2023-02-07T12:30:27.939Z,68.03
2023-02-07T12:31:28.041Z,67.75
2023-02-07T12:32:28.040Z,68.38
2023-02-07T12:33:27.926Z,69.73
2023-02-07T12:34:27.882Z,73.14
2023-02-07T12:35:27.879Z,73.97
2023-02-07T12:36:27.867Z,73.86
2023-02-07T12:37:27.860Z,71.58
2023-02-07T12:38:27.840Z,70.95
2023-02-07T12:39:27.824Z,68.97
2023-02-07T12:40:27.815Z,68.38
2023-02-07T12:41:27.808Z,70.84
2023-02-07T12:42:27.779Z,70.78
2023-02-07T12:43:27.772Z,70.12
2023-02-07T12:44:27.755Z,71.89
2023-02-07T12:45:27.761Z,70.84
2023-02-07T12:46:27.726Z,70.32
2023-02-07T12:47:27.720Z,71.19
2023-02-07T12:48:27.712Z,70.25
2023-02-07T12:49:27.741Z,70.15
2023-02-07T12:50:27.682Z,70.15
2023-02-07T12:51:27.791Z,71.50
2023-02-07T12:52:27.660Z,72.55